sensor_id;sensor_type;location;lat;lon;timestamp;pressure;altitude;pressure_sealevel;temperature;humidity
70684;BME280;58263;48.146;11.440;2023-03-23T00:01:13;95203.00;;;10.54;54.85
70684;BME280;58263;48.146;11.440;2023-03-23T00:03:40;95205.53;;;10.43;55.31
70684;BME280;58263;48.146;11.440;2023-03-23T00:06:06;95210.41;;;10.46;55.12
70684;BME280;58263;48.146;11.440;2023-03-23T00:08:33;95207.97;;;10.45;54.99
70684;BME280;58263;48.146;11.440;2023-03-23T00:10:59;95212.53;;;10.44;55.37
70684;BME280;58263;48.146;11.440;2023-03-23T00:13:27;95211.13;;;10.42;55.53
70684;BME280;58263;48.146;11.440;2023-03-23T00:15:52;95216.97;;;10.39;55.38
70684;BME280;58263;48.146;11.440;2023-03-23T00:18:19;95212.31;;;10.34;55.94
70684;BME280;58263;48.146;11.440;2023-03-23T00:20:52;95211.91;;;10.25;56.35
70684;BME280;58263;48.146;11.440;2023-03-23T00:23:19;95209.13;;;10.20;56.65
70684;BME280;58263;48.146;11.440;2023-03-23T00:25:53;95206.28;;;10.27;56.18
70684;BME280;58263;48.146;11.440;2023-03-23T00:28:22;95210.97;;;10.20;56.53
70684;BME280;58263;48.146;11.440;2023-03-23T00:31:01;95214.38;;;10.15;56.94
70684;BME280;58263;48.146;11.440;2023-03-23T00:33:30;95207.09;;;10.10;57.20
70684;BME280;58263;48.146;11.440;2023-03-23T00:35:59;95203.19;;;10.18;56.55
70684;BME280;58263;48.146;11.440;2023-03-23T00:38:24;95202.38;;;10.18;56.85
70684;BME280;58263;48.146;11.440;2023-03-23T00:40:50;95212.91;;;10.07;57.13
70684;BME280;58263;48.146;11.440;2023-03-23T00:43:17;95208.63;;;10.06;57.26
70684;BME280;58263;48.146;11.440;2023-03-23T00:45:43;95205.09;;;10.06;57.19
70684;BME280;58263;48.146;11.440;2023-03-23T00:48:12;95208.66;;;9.94;57.48
70684;BME280;58263;48.146;11.440;2023-03-23T00:50:38;95213.38;;;10.04;57.26
70684;BME280;58263;48.146;11.440;2023-03-23T00:53:04;95206.09;;;10.00;57.71
70684;BME280;58263;48.146;11.440;2023-03-23T00:55:29;95209.00;;;9.98;57.90
70684;BME280;58263;48.146;11.440;2023-03-23T00:57:55;95212.06;;;9.90;58.10
70684;BME280;58263;48.146;11.440;2023-03-23T01:00:21;95206.50;;;9.79;58.21
70684;BME280;58263;48.146;11.440;2023-03-23T01:02:47;95204.38;;;9.81;58.40
70684;BME280;58263;48.146;11.440;2023-03-23T01:05:13;95208.03;;;9.75;58.91
70684;BME280;58263;48.146;11.440;2023-03-23T01:07:41;95203.59;;;9.81;58.80
70684;BME280;58263;48.146;11.440;2023-03-23T01:10:10;95204.38;;;9.81;58.38
70684;BME280;58263;48.146;11.440;2023-03-23T01:12:37;95201.88;;;9.75;58.89
70684;BME280;58263;48.146;11.440;2023-03-23T01:15:03;95197.09;;;9.77;58.84
70684;BME280;58263;48.146;11.440;2023-03-23T01:17:28;95195.13;;;9.72;58.88
70684;BME280;58263;48.146;11.440;2023-03-23T01:19:54;95195.59;;;9.69;59.27
70684;BME280;58263;48.146;11.440;2023-03-23T01:22:19;95192.91;;;9.69;59.13
70684;BME280;58263;48.146;11.440;2023-03-23T01:24:44;95186.88;;;9.62;59.74
70684;BME280;58263;48.146;11.440;2023-03-23T01:27:10;95195.41;;;9.59;59.33
70684;BME280;58263;48.146;11.440;2023-03-23T01:29:36;95186.88;;;9.62;59.58
70684;BME280;58263;48.146;11.440;2023-03-23T01:32:02;95184.78;;;9.64;59.42
70684;BME280;58263;48.146;11.440;2023-03-23T01:34:27;95180.81;;;9.67;59.32
70684;BME280;58263;48.146;11.440;2023-03-23T01:36:53;95179.50;;;9.69;59.15
70684;BME280;58263;48.146;11.440;2023-03-23T01:39:18;95180.72;;;9.61;59.46
70684;BME280;58263;48.146;11.440;2023-03-23T01:41:43;95176.56;;;9.54;59.85
70684;BME280;58263;48.146;11.440;2023-03-23T01:46:43;95189.38;;;9.52;60.09
70684;BME280;58263;48.146;11.440;2023-03-23T01:49:15;95193.09;;;9.51;60.11
70684;BME280;58263;48.146;11.440;2023-03-23T01:51:53;95182.94;;;9.53;59.84
70684;BME280;58263;48.146;11.440;2023-03-23T01:54:22;95191.56;;;9.55;59.83
70684;BME280;58263;48.146;11.440;2023-03-23T01:56:58;95194.28;;;9.43;60.06
70684;BME280;58263;48.146;11.440;2023-03-23T01:59:26;95184.59;;;9.42;60.22
70684;BME280;58263;48.146;11.440;2023-03-23T02:01:53;95186.72;;;9.40;60.68
70684;BME280;58263;48.146;11.440;2023-03-23T02:04:20;95180.66;;;9.44;60.49
70684;BME280;58263;48.146;11.440;2023-03-23T02:06:47;95177.97;;;9.44;60.58
70684;BME280;58263;48.146;11.440;2023-03-23T02:09:13;95180.41;;;9.46;60.20
70684;BME280;58263;48.146;11.440;2023-03-23T02:11:42;95176.03;;;9.40;60.38
70684;BME280;58263;48.146;11.440;2023-03-23T02:14:07;95171.84;;;9.32;60.57
70684;BME280;58263;48.146;11.440;2023-03-23T02:16:52;95168.69;;;9.35;60.72
70684;BME280;58263;48.146;11.440;2023-03-23T02:19:35;95172.88;;;9.31;61.00
70684;BME280;58263;48.146;11.440;2023-03-23T02:22:38;95171.66;;;9.22;61.66
70684;BME280;58263;48.146;11.440;2023-03-23T02:28:04;95161.44;;;9.07;62.01
70684;BME280;58263;48.146;11.440;2023-03-23T02:30:45;95168.50;;;9.13;61.75
70684;BME280;58263;48.146;11.440;2023-03-23T02:33:21;95170.25;;;9.19;61.94
70684;BME280;58263;48.146;11.440;2023-03-23T02:36:14;95159.66;;;9.24;61.44
70684;BME280;58263;48.146;11.440;2023-03-23T02:38:51;95162.19;;;9.31;61.31
70684;BME280;58263;48.146;11.440;2023-03-23T02:41:24;95173.81;;;9.37;61.08
70684;BME280;58263;48.146;11.440;2023-03-23T02:43:52;95162.41;;;9.41;61.02
70684;BME280;58263;48.146;11.440;2023-03-23T02:46:20;95165.19;;;9.46;60.93
70684;BME280;58263;48.146;11.440;2023-03-23T02:48:47;95163.19;;;9.42;61.14
70684;BME280;58263;48.146;11.440;2023-03-23T02:51:18;95167.63;;;9.36;61.33
70684;BME280;58263;48.146;11.440;2023-03-23T02:53:45;95157.03;;;9.41;61.42
70684;BME280;58263;48.146;11.440;2023-03-23T02:56:11;95164.47;;;9.39;61.20
70684;BME280;58263;48.146;11.440;2023-03-23T02:58:38;95163.50;;;9.28;61.42
70684;BME280;58263;48.146;11.440;2023-03-23T03:03:52;95157.13;;;9.18;61.91
70684;BME280;58263;48.146;11.440;2023-03-23T03:11:52;95151.94;;;9.40;61.04
70684;BME280;58263;48.146;11.440;2023-03-23T03:14:23;95151.03;;;9.34;61.35
70684;BME280;58263;48.146;11.440;2023-03-23T03:17:13;95150.06;;;9.40;61.33
70684;BME280;58263;48.146;11.440;2023-03-23T03:19:45;95153.47;;;9.36;61.20
70684;BME280;58263;48.146;11.440;2023-03-23T03:22:13;95152.63;;;9.35;61.26
70684;BME280;58263;48.146;11.440;2023-03-23T03:24:40;95153.78;;;9.39;61.54
70684;BME280;58263;48.146;11.440;2023-03-23T03:27:12;95156.38;;;9.34;61.40
70684;BME280;58263;48.146;11.440;2023-03-23T03:29:40;95152.53;;;9.30;61.60
70684;BME280;58263;48.146;11.440;2023-03-23T03:32:10;95163.63;;;9.22;61.70
70684;BME280;58263;48.146;11.440;2023-03-23T03:34:37;95162.09;;;9.26;61.96
70684;BME280;58263;48.146;11.440;2023-03-23T03:37:03;95169.16;;;9.32;61.51
70684;BME280;58263;48.146;11.440;2023-03-23T03:39:34;95160.44;;;9.37;61.39
70684;BME280;58263;48.146;11.440;2023-03-23T03:42:00;95157.53;;;9.38;61.08
70684;BME280;58263;48.146;11.440;2023-03-23T03:44:25;95165.31;;;9.40;61.00
70684;BME280;58263;48.146;11.440;2023-03-23T03:46:51;95168.13;;;9.33;61.83
70684;BME280;58263;48.146;11.440;2023-03-23T03:49:16;95172.22;;;9.24;61.97
70684;BME280;58263;48.146;11.440;2023-03-23T03:51:42;95170.13;;;9.26;62.16
70684;BME280;58263;48.146;11.440;2023-03-23T03:54:07;95173.38;;;9.28;61.75
70684;BME280;58263;48.146;11.440;2023-03-23T03:56:33;95181.97;;;9.30;61.79
70684;BME280;58263;48.146;11.440;2023-03-23T03:59:02;95179.88;;;9.32;61.64
70684;BME280;58263;48.146;11.440;2023-03-23T04:01:27;95178.22;;;9.43;61.06
70684;BME280;58263;48.146;11.440;2023-03-23T04:03:53;95182.78;;;9.30;61.79
70684;BME280;58263;48.146;11.440;2023-03-23T04:06:20;95180.88;;;9.43;61.56
70684;BME280;58263;48.146;11.440;2023-03-23T04:08:45;95185.22;;;9.32;61.92
70684;BME280;58263;48.146;11.440;2023-03-23T04:11:12;95185.81;;;9.22;62.82
70684;BME280;58263;48.146;11.440;2023-03-23T04:13:39;95187.91;;;9.20;62.16
70684;BME280;58263;48.146;11.440;2023-03-23T04:16:05;95188.84;;;9.26;62.32
70684;BME280;58263;48.146;11.440;2023-03-23T04:18:31;95180.84;;;9.26;62.09
70684;BME280;58263;48.146;11.440;2023-03-23T04:20:58;95184.53;;;9.25;62.13
70684;BME280;58263;48.146;11.440;2023-03-23T04:23:28;95189.91;;;9.25;62.39
70684;BME280;58263;48.146;11.440;2023-03-23T04:25:55;95186.38;;;9.36;62.43
70684;BME280;58263;48.146;11.440;2023-03-23T04:28:22;95189.78;;;9.32;62.22
70684;BME280;58263;48.146;11.440;2023-03-23T04:30:49;95193.84;;;9.22;62.75
70684;BME280;58263;48.146;11.440;2023-03-23T04:33:18;95198.84;;;9.19;62.82
70684;BME280;58263;48.146;11.440;2023-03-23T04:35:44;95196.53;;;9.22;62.73
70684;BME280;58263;48.146;11.440;2023-03-23T04:38:12;95205.47;;;9.28;62.30
70684;BME280;58263;48.146;11.440;2023-03-23T04:40:40;95207.78;;;9.36;62.12
70684;BME280;58263;48.146;11.440;2023-03-23T04:43:06;95197.56;;;9.33;62.23
70684;BME280;58263;48.146;11.440;2023-03-23T04:45:33;95191.97;;;9.23;62.52
70684;BME280;58263;48.146;11.440;2023-03-23T04:47:59;95191.78;;;9.24;62.85
70684;BME280;58263;48.146;11.440;2023-03-23T04:50:28;95192.69;;;9.30;62.67
70684;BME280;58263;48.146;11.440;2023-03-23T04:52:56;95199.56;;;9.26;63.29
70684;BME280;58263;48.146;11.440;2023-03-23T04:55:23;95205.09;;;9.36;63.00
70684;BME280;58263;48.146;11.440;2023-03-23T04:57:48;95199.09;;;9.29;62.88
70684;BME280;58263;48.146;11.440;2023-03-23T05:00:14;95186.06;;;9.33;62.60
70684;BME280;58263;48.146;11.440;2023-03-23T05:02:45;95195.56;;;9.40;62.37
70684;BME280;58263;48.146;11.440;2023-03-23T05:05:19;95200.91;;;9.40;61.96
70684;BME280;58263;48.146;11.440;2023-03-23T05:07:45;95200.78;;;9.47;62.07
70684;BME280;58263;48.146;11.440;2023-03-23T05:10:11;95208.00;;;9.46;62.13
70684;BME280;58263;48.146;11.440;2023-03-23T05:12:37;95206.84;;;9.42;62.48
70684;BME280;58263;48.146;11.440;2023-03-23T05:15:03;95208.56;;;9.48;62.42
70684;BME280;58263;48.146;11.440;2023-03-23T05:17:30;95205.91;;;9.48;62.50
70684;BME280;58263;48.146;11.440;2023-03-23T05:19:57;95209.16;;;9.51;62.41
70684;BME280;58263;48.146;11.440;2023-03-23T05:22:23;95212.41;;;9.53;62.24
70684;BME280;58263;48.146;11.440;2023-03-23T05:24:51;95219.03;;;9.50;62.11
70684;BME280;58263;48.146;11.440;2023-03-23T05:27:18;95225.72;;;9.47;62.51
70684;BME280;58263;48.146;11.440;2023-03-23T05:29:44;95233.81;;;9.53;62.37
70684;BME280;58263;48.146;11.440;2023-03-23T05:32:11;95232.28;;;9.57;62.24
70684;BME280;58263;48.146;11.440;2023-03-23T05:34:37;95224.25;;;9.57;62.28
70684;BME280;58263;48.146;11.440;2023-03-23T05:37:03;95223.56;;;9.61;62.07
70684;BME280;58263;48.146;11.440;2023-03-23T05:39:29;95218.09;;;9.68;61.66
70684;BME280;58263;48.146;11.440;2023-03-23T05:41:55;95210.84;;;9.69;62.06
70684;BME280;58263;48.146;11.440;2023-03-23T05:44:21;95195.28;;;9.66;62.05
70684;BME280;58263;48.146;11.440;2023-03-23T05:46:46;95187.00;;;9.67;61.47
70684;BME280;58263;48.146;11.440;2023-03-23T05:49:13;95178.38;;;9.65;61.99
70684;BME280;58263;48.146;11.440;2023-03-23T05:51:38;95172.41;;;9.75;61.63
70684;BME280;58263;48.146;11.440;2023-03-23T05:54:04;95167.75;;;9.70;61.91
70684;BME280;58263;48.146;11.440;2023-03-23T05:56:30;95155.88;;;9.78;61.45
70684;BME280;58263;48.146;11.440;2023-03-23T05:58:56;95160.88;;;9.74;61.72
70684;BME280;58263;48.146;11.440;2023-03-23T06:01:21;95147.09;;;9.82;61.68
70684;BME280;58263;48.146;11.440;2023-03-23T06:03:48;95158.94;;;9.87;61.50
70684;BME280;58263;48.146;11.440;2023-03-23T06:06:16;95156.38;;;9.92;61.08
70684;BME280;58263;48.146;11.440;2023-03-23T06:08:42;95157.84;;;10.00;60.76
70684;BME280;58263;48.146;11.440;2023-03-23T06:11:08;95162.56;;;10.09;60.22
70684;BME280;58263;48.146;11.440;2023-03-23T06:13:33;95179.22;;;10.11;60.15
70684;BME280;58263;48.146;11.440;2023-03-23T06:15:58;95180.84;;;10.12;60.63
70684;BME280;58263;48.146;11.440;2023-03-23T06:18:24;95193.34;;;10.24;60.31
70684;BME280;58263;48.146;11.440;2023-03-23T06:20:50;95192.97;;;10.32;60.16
70684;BME280;58263;48.146;11.440;2023-03-23T06:23:16;95201.59;;;10.34;60.21
70684;BME280;58263;48.146;11.440;2023-03-23T06:25:43;95199.66;;;10.46;59.67
70684;BME280;58263;48.146;11.440;2023-03-23T06:28:09;95196.09;;;10.41;59.53
70684;BME280;58263;48.146;11.440;2023-03-23T06:30:35;95191.22;;;10.55;59.05
70684;BME280;58263;48.146;11.440;2023-03-23T06:33:00;95183.19;;;10.55;58.96
70684;BME280;58263;48.146;11.440;2023-03-23T06:35:27;95170.41;;;10.62;58.80
70684;BME280;58263;48.146;11.440;2023-03-23T06:37:52;95160.25;;;10.64;58.72
70684;BME280;58263;48.146;11.440;2023-03-23T06:40:19;95160.91;;;10.71;58.13
70684;BME280;58263;48.146;11.440;2023-03-23T06:42:44;95151.22;;;10.70;58.29
70684;BME280;58263;48.146;11.440;2023-03-23T06:45:10;95160.56;;;10.85;57.85
70684;BME280;58263;48.146;11.440;2023-03-23T06:47:35;95161.19;;;10.92;57.75
70684;BME280;58263;48.146;11.440;2023-03-23T06:50:01;95155.41;;;11.00;57.62
70684;BME280;58263;48.146;11.440;2023-03-23T06:52:26;95149.56;;;11.03;57.54
70684;BME280;58263;48.146;11.440;2023-03-23T06:54:52;95144.72;;;11.05;57.00
70684;BME280;58263;48.146;11.440;2023-03-23T06:57:18;95142.69;;;11.12;56.92
70684;BME280;58263;48.146;11.440;2023-03-23T06:59:44;95152.34;;;11.36;56.33
70684;BME280;58263;48.146;11.440;2023-03-23T07:02:12;95152.31;;;11.53;55.96
70684;BME280;58263;48.146;11.440;2023-03-23T07:04:41;95150.81;;;11.62;55.52
70684;BME280;58263;48.146;11.440;2023-03-23T07:07:10;95156.84;;;11.74;55.30
70684;BME280;58263;48.146;11.440;2023-03-23T07:09:37;95158.63;;;11.91;54.71
70684;BME280;58263;48.146;11.440;2023-03-23T07:12:02;95158.84;;;12.11;54.19
70684;BME280;58263;48.146;11.440;2023-03-23T07:14:29;95160.06;;;12.26;54.22
70684;BME280;58263;48.146;11.440;2023-03-23T07:16:54;95174.22;;;12.48;53.13
70684;BME280;58263;48.146;11.440;2023-03-23T07:19:20;95165.69;;;12.57;53.28
70684;BME280;58263;48.146;11.440;2023-03-23T07:21:45;95167.69;;;12.72;52.98
70684;BME280;58263;48.146;11.440;2023-03-23T07:24:11;95166.97;;;12.87;52.73
70684;BME280;58263;48.146;11.440;2023-03-23T07:26:40;95163.31;;;12.98;52.12
70684;BME280;58263;48.146;11.440;2023-03-23T07:29:05;95157.13;;;13.02;51.40
70684;BME280;58263;48.146;11.440;2023-03-23T07:31:31;95155.00;;;13.10;51.46
70684;BME280;58263;48.146;11.440;2023-03-23T07:33:57;95159.41;;;13.26;50.77
70684;BME280;58263;48.146;11.440;2023-03-23T07:36:22;95153.88;;;13.43;50.75
70684;BME280;58263;48.146;11.440;2023-03-23T07:38:47;95164.09;;;13.46;50.32
70684;BME280;58263;48.146;11.440;2023-03-23T07:41:13;95150.09;;;13.49;49.78
70684;BME280;58263;48.146;11.440;2023-03-23T07:43:38;95150.94;;;13.60;50.17
70684;BME280;58263;48.146;11.440;2023-03-23T07:46:04;95148.56;;;13.64;49.36
70684;BME280;58263;48.146;11.440;2023-03-23T07:48:30;95137.22;;;13.67;49.53
70684;BME280;58263;48.146;11.440;2023-03-23T07:50:55;95151.84;;;13.81;49.26
70684;BME280;58263;48.146;11.440;2023-03-23T07:53:20;95152.94;;;13.85;48.78
70684;BME280;58263;48.146;11.440;2023-03-23T07:55:48;95146.19;;;13.88;49.30
70684;BME280;58263;48.146;11.440;2023-03-23T07:58:13;95154.25;;;13.83;49.52
70684;BME280;58263;48.146;11.440;2023-03-23T08:00:45;95146.97;;;13.83;49.26
70684;BME280;58263;48.146;11.440;2023-03-23T08:03:10;95151.06;;;13.91;49.28
70684;BME280;58263;48.146;11.440;2023-03-23T08:05:36;95157.00;;;13.98;49.42
70684;BME280;58263;48.146;11.440;2023-03-23T08:08:01;95154.03;;;14.00;49.12
70684;BME280;58263;48.146;11.440;2023-03-23T08:10:27;95150.25;;;14.01;48.86
70684;BME280;58263;48.146;11.440;2023-03-23T08:12:54;95154.59;;;14.07;48.34
70684;BME280;58263;48.146;11.440;2023-03-23T08:15:21;95145.97;;;14.15;47.51
70684;BME280;58263;48.146;11.440;2023-03-23T08:17:47;95154.59;;;14.23;47.75
70684;BME280;58263;48.146;11.440;2023-03-23T08:20:14;95151.13;;;14.22;47.52
70684;BME280;58263;48.146;11.440;2023-03-23T08:22:41;95157.84;;;14.19;47.59
70684;BME280;58263;48.146;11.440;2023-03-23T08:25:09;95156.50;;;14.22;47.46
70684;BME280;58263;48.146;11.440;2023-03-23T08:27:35;95159.19;;;14.32;47.19
70684;BME280;58263;48.146;11.440;2023-03-23T08:30:02;95158.94;;;14.24;47.22
70684;BME280;58263;48.146;11.440;2023-03-23T08:32:28;95165.16;;;14.55;46.78
70684;BME280;58263;48.146;11.440;2023-03-23T08:34:54;95167.03;;;14.60;46.39
70684;BME280;58263;48.146;11.440;2023-03-23T08:37:19;95168.94;;;14.80;46.60
70684;BME280;58263;48.146;11.440;2023-03-23T08:39:44;95175.69;;;14.93;46.76
70684;BME280;58263;48.146;11.440;2023-03-23T08:42:10;95180.53;;;15.01;45.33
70684;BME280;58263;48.146;11.440;2023-03-23T08:44:36;95181.59;;;15.20;45.26
70684;BME280;58263;48.146;11.440;2023-03-23T08:47:03;95180.47;;;15.37;45.21
70684;BME280;58263;48.146;11.440;2023-03-23T08:49:31;95186.59;;;15.58;45.05
70684;BME280;58263;48.146;11.440;2023-03-23T08:51:58;95193.31;;;15.76;44.56
70684;BME280;58263;48.146;11.440;2023-03-23T08:54:23;95199.19;;;15.94;44.43
70684;BME280;58263;48.146;11.440;2023-03-23T08:56:48;95195.59;;;16.09;44.31
70684;BME280;58263;48.146;11.440;2023-03-23T08:59:14;95199.34;;;16.18;44.23
70684;BME280;58263;48.146;11.440;2023-03-23T09:01:39;95196.66;;;16.58;43.30
70684;BME280;58263;48.146;11.440;2023-03-23T09:04:05;95198.06;;;16.84;42.62
70684;BME280;58263;48.146;11.440;2023-03-23T09:06:30;95197.13;;;17.04;41.71
70684;BME280;58263;48.146;11.440;2023-03-23T09:08:55;95201.53;;;17.24;41.11
70684;BME280;58263;48.146;11.440;2023-03-23T09:11:21;95206.31;;;17.33;41.18
70684;BME280;58263;48.146;11.440;2023-03-23T09:13:47;95211.22;;;17.31;40.95
70684;BME280;58263;48.146;11.440;2023-03-23T09:16:13;95215.91;;;17.25;40.58
70684;BME280;58263;48.146;11.440;2023-03-23T09:18:39;95215.97;;;17.44;40.31
70684;BME280;58263;48.146;11.440;2023-03-23T09:21:05;95224.13;;;17.68;40.54
70684;BME280;58263;48.146;11.440;2023-03-23T09:23:32;95219.50;;;17.69;40.29
70684;BME280;58263;48.146;11.440;2023-03-23T09:26:00;95223.03;;;17.94;40.93
70684;BME280;58263;48.146;11.440;2023-03-23T09:28:25;95231.75;;;17.66;39.75
70684;BME280;58263;48.146;11.440;2023-03-23T09:30:54;95239.13;;;17.61;39.35
70684;BME280;58263;48.146;11.440;2023-03-23T09:33:22;95233.78;;;17.50;39.66
70684;BME280;58263;48.146;11.440;2023-03-23T09:35:47;95233.81;;;17.74;39.48
70684;BME280;58263;48.146;11.440;2023-03-23T09:38:13;95241.66;;;17.76;39.39
70684;BME280;58263;48.146;11.440;2023-03-23T09:40:47;95231.13;;;17.99;38.87
70684;BME280;58263;48.146;11.440;2023-03-23T09:43:34;95221.94;;;18.19;39.05
70684;BME280;58263;48.146;11.440;2023-03-23T09:53:59;95225.84;;;19.03;37.50
70684;BME280;58263;48.146;11.440;2023-03-23T09:56:29;95224.41;;;19.24;37.35
70684;BME280;58263;48.146;11.440;2023-03-23T10:01:55;95231.09;;;19.32;36.60
70684;BME280;58263;48.146;11.440;2023-03-23T10:04:33;95228.91;;;19.15;36.18
70684;BME280;58263;48.146;11.440;2023-03-23T10:07:12;95235.34;;;18.86;35.82
70684;BME280;58263;48.146;11.440;2023-03-23T10:09:40;95234.09;;;18.59;36.13
70684;BME280;58263;48.146;11.440;2023-03-23T10:12:30;95227.63;;;18.74;36.85
70684;BME280;58263;48.146;11.440;2023-03-23T10:15:15;95230.00;;;18.62;36.67
70684;BME280;58263;48.146;11.440;2023-03-23T10:20:50;95229.69;;;18.83;36.83
70684;BME280;58263;48.146;11.440;2023-03-23T10:26:21;95236.31;;;18.77;36.17
70684;BME280;58263;48.146;11.440;2023-03-23T10:28:57;95237.28;;;18.67;35.94
70684;BME280;58263;48.146;11.440;2023-03-23T10:31:27;95232.41;;;18.64;36.00
70684;BME280;58263;48.146;11.440;2023-03-23T10:33:56;95235.94;;;18.64;36.29
70684;BME280;58263;48.146;11.440;2023-03-23T10:36:35;95232.94;;;18.47;35.56
70684;BME280;58263;48.146;11.440;2023-03-23T10:39:20;95233.97;;;18.32;36.24
70684;BME280;58263;48.146;11.440;2023-03-23T10:41:46;95227.75;;;18.50;35.77
70684;BME280;58263;48.146;11.440;2023-03-23T10:44:24;95236.81;;;18.79;36.07
70684;BME280;58263;48.146;11.440;2023-03-23T10:47:02;95234.31;;;18.82;36.25
70684;BME280;58263;48.146;11.440;2023-03-23T10:49:51;95234.31;;;18.82;36.01
70684;BME280;58263;48.146;11.440;2023-03-23T10:52:37;95233.97;;;18.89;35.58
70684;BME280;58263;48.146;11.440;2023-03-23T10:57:38;95238.81;;;18.92;36.58
70684;BME280;58263;48.146;11.440;2023-03-23T11:00:18;95235.94;;;18.83;36.82
70684;BME280;58263;48.146;11.440;2023-03-23T11:03:17;95233.66;;;18.90;36.24
70684;BME280;58263;48.146;11.440;2023-03-23T11:05:41;95230.94;;;18.90;36.52
70684;BME280;58263;48.146;11.440;2023-03-23T11:08:15;95232.19;;;18.98;36.25
70684;BME280;58263;48.146;11.440;2023-03-23T11:10:52;95229.41;;;18.84;36.21
70684;BME280;58263;48.146;11.440;2023-03-23T11:13:20;95234.84;;;18.65;37.14
70684;BME280;58263;48.146;11.440;2023-03-23T11:15:47;95231.59;;;18.82;37.23
70684;BME280;58263;48.146;11.440;2023-03-23T11:20:50;95228.88;;;18.82;37.54
70684;BME280;58263;48.146;11.440;2023-03-23T11:26:08;95214.50;;;18.82;36.92
70684;BME280;58263;48.146;11.440;2023-03-23T11:28:42;95218.38;;;19.28;36.74
70684;BME280;58263;48.146;11.440;2023-03-23T11:31:08;95210.97;;;19.47;36.34
70684;BME280;58263;48.146;11.440;2023-03-23T11:33:54;95207.94;;;19.63;35.68
70684;BME280;58263;48.146;11.440;2023-03-23T11:36:27;95210.41;;;20.06;34.83
70684;BME280;58263;48.146;11.440;2023-03-23T11:38:54;95213.31;;;20.23;33.96
70684;BME280;58263;48.146;11.440;2023-03-23T11:41:23;95215.69;;;20.39;34.43
70684;BME280;58263;48.146;11.440;2023-03-23T11:43:51;95215.59;;;20.67;34.26
70684;BME280;58263;48.146;11.440;2023-03-23T11:46:50;95221.16;;;20.75;33.88
70684;BME280;58263;48.146;11.440;2023-03-23T11:49:26;95217.75;;;20.70;33.63
70684;BME280;58263;48.146;11.440;2023-03-23T11:51:58;95212.72;;;20.86;32.93
70684;BME280;58263;48.146;11.440;2023-03-23T11:54:32;95205.38;;;20.86;32.93
70684;BME280;58263;48.146;11.440;2023-03-23T11:56:58;95210.09;;;20.94;32.73
70684;BME280;58263;48.146;11.440;2023-03-23T11:59:33;95207.47;;;20.89;32.52
70684;BME280;58263;48.146;11.440;2023-03-23T12:05:15;95198.75;;;21.33;32.38
70684;BME280;58263;48.146;11.440;2023-03-23T12:10:51;95192.25;;;25.20;27.25
70684;BME280;58263;48.146;11.440;2023-03-23T12:16:07;95196.44;;;23.73;26.99
70684;BME280;58263;48.146;11.440;2023-03-23T12:21:37;95192.59;;;22.83;27.69
70684;BME280;58263;48.146;11.440;2023-03-23T12:26:55;95188.41;;;22.85;28.03
70684;BME280;58263;48.146;11.440;2023-03-23T12:32:47;95182.50;;;21.90;29.39
70684;BME280;58263;48.146;11.440;2023-03-23T12:35:32;95176.16;;;21.72;29.27
70684;BME280;58263;48.146;11.440;2023-03-23T12:38:03;95187.88;;;21.41;29.86
70684;BME280;58263;48.146;11.440;2023-03-23T12:40:58;95187.00;;;21.23;30.17
70684;BME280;58263;48.146;11.440;2023-03-23T12:48:52;95182.09;;;21.43;30.44
70684;BME280;58263;48.146;11.440;2023-03-23T12:51:31;95181.63;;;21.41;30.46
70684;BME280;58263;48.146;11.440;2023-03-23T12:54:03;95187.63;;;20.98;30.38
70684;BME280;58263;48.146;11.440;2023-03-23T13:02:01;95178.69;;;20.24;30.54
70684;BME280;58263;48.146;11.440;2023-03-23T13:04:34;95172.31;;;19.92;31.09
70684;BME280;58263;48.146;11.440;2023-03-23T13:07:05;95171.28;;;20.02;31.24
70684;BME280;58263;48.146;11.440;2023-03-23T13:12:16;95153.91;;;19.70;31.71
70684;BME280;58263;48.146;11.440;2023-03-23T13:17:27;95165.44;;;19.53;32.09
70684;BME280;58263;48.146;11.440;2023-03-23T13:20:30;95163.31;;;19.77;32.05
70684;BME280;58263;48.146;11.440;2023-03-23T13:23:21;95159.97;;;20.45;32.11
70684;BME280;58263;48.146;11.440;2023-03-23T13:28:28;95173.75;;;20.85;33.07
70684;BME280;58263;48.146;11.440;2023-03-23T13:31:13;95176.34;;;21.13;32.73
70684;BME280;58263;48.146;11.440;2023-03-23T13:33:46;95163.84;;;21.12;33.11
70684;BME280;58263;48.146;11.440;2023-03-23T13:36:13;95177.94;;;21.14;33.19
70684;BME280;58263;48.146;11.440;2023-03-23T13:38:46;95166.19;;;21.36;32.18
70684;BME280;58263;48.146;11.440;2023-03-23T13:41:14;95168.75;;;21.33;33.21
70684;BME280;58263;48.146;11.440;2023-03-23T13:43:42;95172.59;;;21.63;32.19
70684;BME280;58263;48.146;11.440;2023-03-23T13:48:49;95171.00;;;20.76;33.59
70684;BME280;58263;48.146;11.440;2023-03-23T13:51:36;95164.63;;;20.67;34.45
70684;BME280;58263;48.146;11.440;2023-03-23T13:56:55;95161.41;;;20.65;34.36
70684;BME280;58263;48.146;11.440;2023-03-23T14:01:54;95158.47;;;20.39;33.66
70684;BME280;58263;48.146;11.440;2023-03-23T14:04:21;95157.06;;;20.41;34.29
70684;BME280;58263;48.146;11.440;2023-03-23T14:06:51;95160.97;;;20.49;33.37
70684;BME280;58263;48.146;11.440;2023-03-23T14:09:24;95159.91;;;20.36;33.88
70684;BME280;58263;48.146;11.440;2023-03-23T14:12:01;95156.38;;;20.36;32.91
70684;BME280;58263;48.146;11.440;2023-03-23T14:14:39;95149.19;;;20.63;33.41
70684;BME280;58263;48.146;11.440;2023-03-23T14:17:22;95151.91;;;20.63;33.23
70684;BME280;58263;48.146;11.440;2023-03-23T14:19:54;95147.97;;;19.96;33.44
70684;BME280;58263;48.146;11.440;2023-03-23T14:22:35;95140.31;;;19.98;34.11
70684;BME280;58263;48.146;11.440;2023-03-23T14:25:17;95145.16;;;20.01;34.62
70684;BME280;58263;48.146;11.440;2023-03-23T14:27:43;95151.13;;;19.47;35.10
70684;BME280;58263;48.146;11.440;2023-03-23T14:30:19;95142.44;;;19.45;35.07